Share

Ingram, KY (40955)

liford's (KKYBARBO2) Elev 1270 ft | 36.84 °N, 83.85 °W | Change Station

Current weather conditions updated 10 minutes ago

Clear
Clear
68.7 °F
Feels Like 68.7 °F
N
1.1
Wind Variable Wind from ESE
Sunrise 6:57 AM
Sunset 8:12 PM
Moon Waning Gibbous

Tomorrow is forecast to be Warmer than today.

Pressure 30.25 in
Visibility 10.0 miles
Clouds Clear
Dew Point 42 °F
Humidity 38%
Rainfall 0.00 in
Snow Depth Not available.
UV 7 out of 16
Pollen 8.70 out of 12
Air Quality Not available.
Flu Activity Sporadic
METAR K1A6 181955Z AUTO 36006KT 10SM CLR 19/05 A3025 RMK AO2 T01920049

More Conditions Fewer Conditions

Pressure 30.25 in
Visibility 10.0 miles
Clouds Clear
Dew Point 42 °F
Humidity 38%
Rainfall 0.00 in
Snow Depth Not available.
UV 7 out of 16
Pollen 8.70 out of 12
Air Quality Not available.
Flu Activity Sporadic
METAR K1A6 181955Z AUTO 36006KT 10SM CLR 19/05 A3025 RMK AO2 T01920049

More Conditions Fewer Conditions

10-Day Weather Forecast

Almanac

Astronomy

Apr. 18, 2014 Rise Set
Actual Time 6:57 AM EDT 8:12 PM EDT
Civil Twilight 6:30 AM EDT 8:39 PM EDT
Nautical Twilight 5:58 AM EDT 9:11 PM EDT
Astronomical Twilight 5:24 AM EDT 9:44 PM EDT
Moon 11:53 PM EDT 9:21 AM EDT
Length of Visible Light 14h 08m
Length of Day
13h 15m
Tomorrow will be 2m 11s longer.
Waning Gibbous, 86% of the Moon is Illuminated
Today
Waning Gibbous
Apr 22
Last Quarter
Apr 29
New
May 6
First Quarter
May 14
Full

Today's Extremes

State Highs State Lows

Community

  • What's for Lunch?
    What's for Lunch?
  • SUNRISE THROUGH THE TREES.
    SUNRISE THROUGH THE TREES.
  • Dog Wood Blossoms
    Dog Wood Blossoms
  • Morning Light
    Morning Light
  • New Day
    New Day

WunderPhotos

Upload Photos

1,702,488 photos uploaded!

WunderBlogs® & News

Nearby

Snow Depth

Station Depth Elevation
No new snow has been reported.

Coastal Water Temperatures

Place Temperature
No Stations Reporting

Earthquake Activity

City Distance Mag. Time & Date
Englewood, Tennessee 96 miles 2.8 10:34 PM EDT
2014-04-12
Minimum magnitude displayed is 2.5.

Nearby Weather Stations

Station Location Temp. Dew Point Humidity Wind Precip. Elev Updated Type
liford's, Barbourville, KY 68.7 °F 42 °F 38% ESE  at  1.1 mph - / hr 1270 ft 4:03 PM EDT Normal
Colmar, Middlesboro, KY 66.9 °F 42 °F 41% ENE  at  0.0 mph - / hr 1270 ft 4:08 PM EDT Normal
Mackey Bend, Barbourville, KY 68.0 °F 39 °F 35% SSE  at  1.7 mph - / hr 997 ft 4:01 PM EDT Normal
White Rocks View, Rose Hill, VA 64.8 °F 42 °F 44% SW  at  3.0 mph 0.00 in / hr 1440 ft 4:13 PM EDT Rapid Fire
Flat Hollow, Speedwell, TN 64.0 °F 37 °F 37% South  at  5.3 mph 0.00 in / hr 1217 ft 3:30 PM EDT Normal

Show More Stations Show Fewer Stations

What do you think?

We're not finished. Please let us know what you like, what you don't like, and what you are still missing.